My Meet Scores
Olivia Green, St. Charles Gymnastics Academy - MyMeetScores.com
Top100 | Top Teams | Upcoming Meets | Completed Meets | Latest | Add Scores | Help| Support | Bookmark and Share

Olivia Green, St. Charles Gymnastics Academy
Personal Bests
LevelVault BarsBeamFloorAA
88.9259.100 9.0509.32536.000
99.2259.325 9.0509.22536.300
100.0000.000 8.6259.05017.675
Meet Scores
Date Meet Team Session Level Division Vault Bars Beam Floor AA
2020-02-28 MEGA Spring Invite 2020 St. Charles Gymnastics Academy 6 10 Senior 0.000 8 0.000 8 7.550 7 7.775 8 15.325 8
2020-02-21 Great Western Invitational - Women's St. Charles Gymnastics Academy 04 10 Cowgirl 0.000 5 0.000 5 8.100 5 8.750 3 16.850 5
2020-02-07 SCGA Classic St. Charles Gymnastics Academy 3 10 All 0.000 2 0.000 2 8.625 2 9.050 1 17.675 2
2020-01-24 Sand Dollar Invitational 2020 St. Charles Gymnastics Academy A07 10 Sr 0.000 8T 0.000 8T 7.825 6 7.725 8 15.550 8
2020-01-10 St Jude Benefit Meet St. Charles Gymnastics Academy 6B 10 Sr B 0.000 10T 6.900 10 0.000 9T 6.900 11
2019-12-13 2019 St Nick St. Charles Gymnastics Academy 3 9 Sr 8.925 3 8.950 4 8.750 3 8.325 3 34.950 1T
2019-05-10 2019 Level 9 Eastern Gymnastics Championships St. Charles Gymnastics Academy 8 9 Sr 7 9.000 22T 8.450 23 8.600 24T 9.225 19 35.275 25
2019-04-11 Region 5 9/10 Championships St. Charles Gymnastics Academy 12 9 Sr 7 9.100 10 9.325 3 8.800 9 9.075 6T 36.300 5
2019-03-01 NGCD Academy's 2019 Flip'r Invitational St. Charles Gymnastics Academy 7 9 Sr 9.225 7 9.250 2T 7.925 10 6.875 13 33.275 7
2019-02-15 Women's Midwest Open St. Charles Gymnastics Academy 07 9 Senior A 8.875 10 8.300 10T 9.050 4 8.675 10 34.900 8
2019-01-25 Metroplex Challenge St. Charles Gymnastics Academy B04 9 Senior 8.250 13T 8.725 10 8.625 5 8.850 8T 34.450 9
2019-01-11 St Jude Benefit Meet St. Charles Gymnastics Academy 3C 9 Sr B 8.700 6 9.100 2 8.950 2 8.825 4 35.575 3
2018-12-07 St. Nick Invite 2018 St. Charles Gymnastics Academy 3 9 Sr 8.600 4 8.900 2 7.600 4T 7.975 4 33.075 3
2018-04-12 2018 Region 5 Levels 9/10 Championships St. Charles Gymnastics Academy 07 9 Sr 6 8.925 19T 8.600 16 9.050 7T 9.100 15T 35.675 11
2018-03-16 2018 Illinois Level 6, 9, 10 State Championships St. Charles Gymnastics Academy 03 9 Sr B 8.975 13T 9.325 6T 8.950 7 8.925 13 36.175 7
2018-03-02 2018 Flip'r Invitational St. Charles Gymnastics Academy 8 9 Sr 8.950 6 8.150 5 8.050 4 8.450 5 33.600 5
2018-02-23 Kinetic Classic St. Charles Gymnastics Academy 3 9 Older 8.750 40 8.900 24T 8.175 40 8.625 27T 34.450 33
2018-02-16 Big Classic St. Charles Gymnastics Academy 5A 9 Senior D 8.500 9 8.150 5T 8.350 6T 8.750 3T 33.750 6
2018-01-19 2018 SCEGA California Classic St. Charles Gymnastics Academy 2G 9 Senior A 8.900 6 8.700 1 8.850 4T 8.650 5 35.100 2T
2018-01-12 St Jude Benefit Meet St. Charles Gymnastics Academy 5B 9 SrB 8.900 7 0.000 13T 8.825 7T 8.550 5 26.275 12
2017-12-14 2017 Women's Hawaiian Pineapple Classic St. Charles Gymnastics Academy 7B 9 Ages15+ 8.400 9 8.800 3 7.450 10 9.125 3 33.775 6
2017-12-01 Ultimate Wish Classic St. Charles Gymnastics Academy 1 9 SR 8.350 4 8.400 3 8.150 4 8.700 3 33.600 3
2017-04-21 2017 Region 5 Levels 7 & 8 Championships St. Charles Gymnastics Academy 17 8 Sr D 1 8.925 13T 9.100 10 8.950 17T 9.025 26 36.000 13T
2017-03-16 2017 Illinois Level 8, 9 & 10 State Meet St. Charles Gymnastics Academy All 8 Sr D 8.425 25 8.900 9 8.375 19 9.325 7T 35.025 16
2017-02-24 Kinetic Classic St. Charles Gymnastics Academy 2 8 All Ages 8.250 41T 8.350 37 9.050 18 9.200 27T 34.850 33
2017-02-10 IGI Chicago Style Gymnastics Meet St. Charles Gymnastics Academy 432R 8 SrB 7.900 11 8.450 8 8.275 10 9.100 7 33.725 10
2017-01-25 Metroplex Challenge - Green Gym St. Charles Gymnastics Academy 06G 8 Sr A 8.750 7 9.025 3 8.725 6 9.075 10 35.575 3
2016-12-02 Ultimate Wish Classic St. Charles Gymnastics Academy 3 8 Senior 8.250 11 8.875 4 8.250 9 9.225 3 34.600 4
Get your scores on
a t-shirt, pin, or hoodie

www.lazysuits.com